Terminal Aerodrome Forecast
Issued by NWS Jackson, MS

Home | Current Version | Previous Version | Text Only | Print | Product List | Glossary On
Versions: 1 2 3 4 5 6 7 8 9 10 11 12 13 14 15 16 17 18 19 20
000
FTUS44 KJAN 290550 RRA
TAFMEI
TAF
KMEI 290550Z 2906/3006 19005KT P6SM FEW015 SCT025
     FM290900 19003KT 5SM BR BKN009 OVC020
     FM291430 16008KT P6SM BKN015 BKN030
     FM291600 16010G19KT P6SM SCT020 BKN030
     FM300100 17006KT P6SM SCT025 BKN050=

USA.gov is the U.S. government's official web portal to all federal, state and local government web resources and services.